createdAt,value
2019-03-09T00:01:29.340Z,6.20
2019-03-09T00:04:31.557Z,6.30
2019-03-09T00:07:33.828Z,6.30
2019-03-09T00:10:36.074Z,6.40
2019-03-09T00:13:38.288Z,6.40
2019-03-09T00:16:40.515Z,6.40
2019-03-09T00:19:42.755Z,6.40
2019-03-09T00:22:46.261Z,6.40
2019-03-09T00:25:54.232Z,6.40
2019-03-09T00:31:02.952Z,6.40
2019-03-09T00:34:05.207Z,6.50
2019-03-09T00:37:07.431Z,6.50
2019-03-09T00:40:10.578Z,6.50
2019-03-09T00:43:12.810Z,6.40
2019-03-09T00:46:15.019Z,6.40
2019-03-09T00:49:17.257Z,6.40
2019-03-09T00:52:19.497Z,6.40
2019-03-09T00:55:21.756Z,6.40
2019-03-09T00:58:23.972Z,6.40
2019-03-09T01:01:26.186Z,6.40
2019-03-09T01:04:28.406Z,6.40
2019-03-09T01:07:30.647Z,6.30
2019-03-09T01:10:32.907Z,6.30
2019-03-09T01:13:35.175Z,6.30
2019-03-09T01:16:37.439Z,6.30
2019-03-09T01:19:39.715Z,6.30
2019-03-09T01:22:41.943Z,6.30
2019-03-09T01:25:44.150Z,6.20
2019-03-09T01:28:46.390Z,6.20
2019-03-09T01:31:48.629Z,6.20
2019-03-09T01:34:50.904Z,6.20
2019-03-09T01:37:53.163Z,6.10
2019-03-09T01:40:55.405Z,6.10
2019-03-09T01:43:57.634Z,6.10
2019-03-09T01:46:59.864Z,6.00
2019-03-09T01:50:02.150Z,6.00
2019-03-09T01:53:04.361Z,5.90
2019-03-09T01:56:06.615Z,5.90
2019-03-09T01:59:08.856Z,5.80
2019-03-09T02:02:11.069Z,5.80
2019-03-09T02:05:13.682Z,5.80
2019-03-09T02:08:15.950Z,5.80
2019-03-09T02:11:18.252Z,5.70
2019-03-09T02:14:20.502Z,5.70
2019-03-09T02:17:22.772Z,5.70
2019-03-09T02:20:25.123Z,5.70
2019-03-09T02:23:27.331Z,5.70
2019-03-09T02:26:29.560Z,5.70
2019-03-09T02:29:31.819Z,5.70
2019-03-09T02:32:34.049Z,5.80
2019-03-09T02:35:36.325Z,5.80
2019-03-09T02:38:50.015Z,5.80
2019-03-09T02:41:52.236Z,5.80
2019-03-09T02:44:54.487Z,5.80
2019-03-09T02:47:56.728Z,5.80
2019-03-09T02:50:58.957Z,5.90
2019-03-09T02:54:01.189Z,5.90
2019-03-09T02:57:03.440Z,5.90
2019-03-09T03:00:07.112Z,6.00
2019-03-09T03:03:09.348Z,6.00
2019-03-09T03:06:11.595Z,6.00
2019-03-09T03:09:16.903Z,6.10
2019-03-09T03:12:19.126Z,6.20
2019-03-09T03:15:31.571Z,6.20
2019-03-09T03:18:33.819Z,6.20
2019-03-09T03:21:36.023Z,6.20
2019-03-09T03:24:38.263Z,6.30
2019-03-09T03:27:40.489Z,6.30
2019-03-09T03:30:42.744Z,6.30
2019-03-09T03:33:44.964Z,6.40
2019-03-09T03:36:47.197Z,6.40
2019-03-09T03:39:49.455Z,6.40
2019-03-09T03:42:51.720Z,6.40
2019-03-09T03:45:53.947Z,6.40
2019-03-09T03:48:56.220Z,6.40
2019-03-09T03:51:58.435Z,6.40
2019-03-09T03:55:00.652Z,6.40
2019-03-09T03:58:02.946Z,6.40
2019-03-09T04:01:05.180Z,6.40
2019-03-09T04:04:07.424Z,6.40
2019-03-09T04:07:09.803Z,6.40
2019-03-09T04:10:12.088Z,6.40
2019-03-09T04:13:14.354Z,6.40
2019-03-09T04:16:16.568Z,6.50
2019-03-09T04:19:18.820Z,6.40
2019-03-09T04:22:21.108Z,6.40
2019-03-09T04:25:23.340Z,6.40
2019-03-09T04:28:25.601Z,6.40
2019-03-09T04:31:27.841Z,6.40
2019-03-09T04:34:30.104Z,6.50
2019-03-09T04:37:32.305Z,6.50
2019-03-09T04:40:34.531Z,6.50
2019-03-09T04:43:36.852Z,6.60
2019-03-09T04:46:39.071Z,6.60
2019-03-09T04:49:41.304Z,6.60
2019-03-09T04:52:43.519Z,6.50
2019-03-09T04:55:45.783Z,6.50
2019-03-09T04:58:48.011Z,6.50
2019-03-09T05:01:50.227Z,6.50
2019-03-09T05:04:53.363Z,6.60
2019-03-09T05:07:59.671Z,6.50
2019-03-09T05:11:07.147Z,6.50
2019-03-09T05:14:13.097Z,6.50
2019-03-09T05:17:15.323Z,6.50
2019-03-09T05:20:17.587Z,6.50
2019-03-09T05:23:19.822Z,6.50
2019-03-09T05:26:22.055Z,6.50
2019-03-09T05:29:24.311Z,6.50
2019-03-09T05:32:26.544Z,6.50
2019-03-09T05:35:28.749Z,6.60
2019-03-09T05:38:31.021Z,6.60
2019-03-09T05:41:33.267Z,6.60
2019-03-09T05:44:35.482Z,6.60
2019-03-09T05:47:37.716Z,6.60
2019-03-09T05:50:39.921Z,6.60
2019-03-09T05:53:42.171Z,6.60
2019-03-09T05:56:44.395Z,6.60
2019-03-09T05:59:46.695Z,6.60
2019-03-09T06:02:48.928Z,6.60
2019-03-09T06:06:00.604Z,6.60
2019-03-09T06:09:02.929Z,6.60
2019-03-09T06:12:05.138Z,6.60
2019-03-09T06:15:07.383Z,6.70
2019-03-09T06:18:09.591Z,6.70
2019-03-09T06:21:11.873Z,6.70
2019-03-09T06:24:14.111Z,6.80
2019-03-09T06:27:16.367Z,6.80
2019-03-09T06:30:18.576Z,6.80
2019-03-09T06:33:26.396Z,6.80
2019-03-09T06:36:35.193Z,6.90
2019-03-09T06:39:40.220Z,6.90
2019-03-09T06:42:45.671Z,6.90
2019-03-09T06:45:47.884Z,7.00
2019-03-09T06:48:50.172Z,7.00
2019-03-09T06:51:52.367Z,7.10
2019-03-09T06:54:54.636Z,7.10
2019-03-09T06:57:56.854Z,7.20
2019-03-09T07:00:59.151Z,7.30
2019-03-09T07:04:01.352Z,7.30
2019-03-09T07:07:03.599Z,7.40
2019-03-09T07:10:06.032Z,7.50
2019-03-09T07:13:08.257Z,7.50
2019-03-09T07:16:10.775Z,7.60
2019-03-09T07:19:12.979Z,7.60
2019-03-09T07:22:15.187Z,7.70
2019-03-09T07:25:17.423Z,7.70
2019-03-09T07:28:19.667Z,7.70
2019-03-09T07:31:21.907Z,7.70
2019-03-09T07:34:24.756Z,7.60
2019-03-09T07:37:26.962Z,7.50
2019-03-09T07:40:29.208Z,7.50
2019-03-09T07:43:31.443Z,7.40
2019-03-09T07:46:33.707Z,7.30
2019-03-09T07:49:35.928Z,7.30
2019-03-09T07:52:38.223Z,7.20
2019-03-09T07:55:40.483Z,7.20
2019-03-09T07:58:42.719Z,7.20
2019-03-09T08:01:45.018Z,7.20
2019-03-09T08:04:47.211Z,7.20
2019-03-09T08:07:49.473Z,7.20
2019-03-09T08:10:51.736Z,7.20
2019-03-09T08:13:53.967Z,7.20
2019-03-09T08:16:56.227Z,7.20
2019-03-09T08:19:58.491Z,7.20
2019-03-09T08:23:00.788Z,7.30
2019-03-09T08:26:03.040Z,7.30
2019-03-09T08:29:05.274Z,7.40
2019-03-09T08:32:07.480Z,7.40
2019-03-09T08:35:09.741Z,7.50
2019-03-09T08:38:11.993Z,7.60
2019-03-09T08:41:14.287Z,7.60
2019-03-09T08:44:16.523Z,7.60
2019-03-09T08:47:18.731Z,7.70
2019-03-09T08:50:21.145Z,7.80
2019-03-09T08:53:23.359Z,7.90
2019-03-09T08:56:25.616Z,8.00
2019-03-09T08:59:27.843Z,8.00
2019-03-09T09:02:30.096Z,8.10
2019-03-09T09:05:32.308Z,8.20
2019-03-09T09:08:34.644Z,8.40
2019-03-09T09:11:37.009Z,8.50
2019-03-09T09:14:39.201Z,8.60
2019-03-09T09:17:41.435Z,8.60
2019-03-09T09:20:43.659Z,8.70
2019-03-09T09:23:45.897Z,8.70
2019-03-09T09:26:48.156Z,8.80
2019-03-09T09:29:50.616Z,8.90
2019-03-09T09:32:52.842Z,9.00
2019-03-09T09:35:55.080Z,9.10
2019-03-09T09:38:57.319Z,9.20
2019-03-09T09:41:59.725Z,9.30
2019-03-09T09:45:01.852Z,9.40
2019-03-09T09:48:04.118Z,9.50
2019-03-09T09:51:06.327Z,9.50
2019-03-09T09:54:08.629Z,9.60
2019-03-09T09:57:10.860Z,9.60
2019-03-09T10:00:16.065Z,9.70
2019-03-09T10:03:18.328Z,9.70
2019-03-09T10:06:20.954Z,9.70
2019-03-09T10:09:23.215Z,9.70
2019-03-09T10:12:25.420Z,9.70
2019-03-09T10:15:27.727Z,9.80
2019-03-09T10:18:29.977Z,9.80
2019-03-09T10:21:32.176Z,9.90
2019-03-09T10:24:34.443Z,10.00
2019-03-09T10:27:36.755Z,10.10
2019-03-09T10:30:39.097Z,10.10
2019-03-09T10:33:41.323Z,10.20
2019-03-09T10:36:43.591Z,10.30
2019-03-09T10:39:45.834Z,10.30
2019-03-09T10:42:48.039Z,10.30
2019-03-09T10:45:50.282Z,10.30
2019-03-09T10:48:52.511Z,10.40
2019-03-09T10:51:54.716Z,10.40
2019-03-09T10:54:56.923Z,10.50
2019-03-09T10:57:59.247Z,10.50
2019-03-09T11:01:01.507Z,10.40
2019-03-09T11:04:03.792Z,10.40
2019-03-09T11:07:06.039Z,10.40
2019-03-09T11:10:08.355Z,10.40
2019-03-09T11:13:10.616Z,10.40
2019-03-09T11:16:12.836Z,10.40
2019-03-09T11:19:15.573Z,10.30
2019-03-09T11:22:17.843Z,10.30
2019-03-09T11:25:20.099Z,10.40
2019-03-09T11:28:22.351Z,10.40
2019-03-09T11:31:25.372Z,10.40
2019-03-09T11:34:27.717Z,10.40
2019-03-09T11:37:30.004Z,10.40
2019-03-09T11:40:32.348Z,10.40
2019-03-09T11:43:34.611Z,10.50
2019-03-09T11:46:37.394Z,10.60
2019-03-09T11:49:39.140Z,10.70
2019-03-09T11:52:41.432Z,10.80
2019-03-09T11:55:43.660Z,10.80
2019-03-09T11:58:45.879Z,10.90
2019-03-09T12:01:48.127Z,10.90
2019-03-09T12:04:50.377Z,11.00
2019-03-09T12:07:52.583Z,11.00
2019-03-09T12:10:54.815Z,11.00
2019-03-09T12:13:57.140Z,11.10
2019-03-09T12:16:59.396Z,11.20
2019-03-09T12:20:01.661Z,11.20
2019-03-09T12:23:14.905Z,11.20
2019-03-09T12:26:17.189Z,11.30
2019-03-09T12:29:19.442Z,11.30
2019-03-09T12:32:22.565Z,11.30
2019-03-09T12:35:24.864Z,11.40
2019-03-09T12:38:27.660Z,11.40
2019-03-09T12:41:29.901Z,11.40
2019-03-09T12:44:32.270Z,11.50
2019-03-09T12:47:34.557Z,11.60
2019-03-09T12:50:36.792Z,11.70
2019-03-09T12:53:39.032Z,11.70
2019-03-09T12:56:41.388Z,11.70
2019-03-09T12:59:43.600Z,11.80
2019-03-09T13:02:45.847Z,11.80
2019-03-09T13:05:48.159Z,11.80
2019-03-09T13:08:50.395Z,11.90
2019-03-09T13:11:52.648Z,12.00
2019-03-09T13:14:54.916Z,12.00
2019-03-09T13:17:57.198Z,12.00
2019-03-09T13:20:59.397Z,12.00
2019-03-09T13:24:01.655Z,12.00
2019-03-09T13:27:03.934Z,12.10
2019-03-09T13:30:07.988Z,12.00
2019-03-09T13:33:10.266Z,12.10
2019-03-09T13:36:12.523Z,12.10
2019-03-09T13:39:14.771Z,12.00
2019-03-09T13:42:17.268Z,12.00
2019-03-09T13:45:19.543Z,12.00
2019-03-09T13:48:21.805Z,11.90
2019-03-09T13:51:24.121Z,11.90
2019-03-09T13:54:26.371Z,11.80
2019-03-09T13:57:28.617Z,11.80
2019-03-09T14:00:40.165Z,11.70
2019-03-09T14:03:33.272Z,11.70
2019-03-09T14:06:35.539Z,11.70
2019-03-09T14:09:37.820Z,11.70
2019-03-09T14:12:40.103Z,11.60
2019-03-09T14:15:42.363Z,11.60
2019-03-09T14:18:44.603Z,11.60
2019-03-09T14:21:46.886Z,11.60
2019-03-09T14:24:49.128Z,11.60
2019-03-09T14:27:51.385Z,11.50
2019-03-09T14:30:53.676Z,11.40
2019-03-09T14:33:55.907Z,11.40
2019-03-09T14:36:58.119Z,11.40
2019-03-09T14:40:00.395Z,11.50
2019-03-09T14:43:02.599Z,11.70
2019-03-09T14:46:04.865Z,11.70
2019-03-09T14:49:07.118Z,11.70
2019-03-09T14:52:09.359Z,11.60
2019-03-09T14:55:11.695Z,11.50
2019-03-09T14:58:14.010Z,11.40
2019-03-09T15:01:16.237Z,11.40
2019-03-09T15:04:18.540Z,11.30
2019-03-09T15:07:20.832Z,11.30
2019-03-09T15:10:23.159Z,11.30
2019-03-09T15:13:25.411Z,11.30
2019-03-09T15:16:27.687Z,11.30
2019-03-09T15:19:32.157Z,11.30
2019-03-09T15:22:36.227Z,11.20
2019-03-09T15:25:41.091Z,11.20
2019-03-09T15:28:44.903Z,11.20
2019-03-09T15:31:48.437Z,11.30
2019-03-09T15:34:52.060Z,11.30
2019-03-09T15:37:55.188Z,11.30
2019-03-09T15:40:58.773Z,11.30
2019-03-09T15:44:02.051Z,11.20
2019-03-09T15:47:06.019Z,11.20
2019-03-09T15:50:09.578Z,11.10
2019-03-09T15:53:13.385Z,11.20
2019-03-09T15:56:17.861Z,11.10
2019-03-09T15:59:22.738Z,11.10
2019-03-09T16:02:26.104Z,11.00
2019-03-09T16:05:30.289Z,10.90
2019-03-09T16:08:34.391Z,10.80
2019-03-09T16:11:45.031Z,10.70
2019-03-09T16:14:44.901Z,10.60
2019-03-09T16:17:48.350Z,10.40
2019-03-09T16:20:52.235Z,10.30
2019-03-09T16:23:55.571Z,10.20
2019-03-09T16:27:01.182Z,10.10
2019-03-09T16:30:04.728Z,10.00
2019-03-09T16:33:08.518Z,10.00
2019-03-09T16:36:10.796Z,10.00
2019-03-09T16:39:13.574Z,9.90
2019-03-09T16:42:15.787Z,9.90
2019-03-09T16:45:18.423Z,9.80
2019-03-09T16:48:21.219Z,9.80
2019-03-09T16:51:23.504Z,9.80
2019-03-09T16:54:26.895Z,9.70
2019-03-09T16:57:29.224Z,9.70
2019-03-09T17:00:31.599Z,9.70
2019-03-09T17:03:34.890Z,9.70
2019-03-09T17:06:37.959Z,9.60
2019-03-09T17:09:40.278Z,9.60
2019-03-09T17:12:42.612Z,9.60
2019-03-09T17:15:45.008Z,9.50
2019-03-09T17:18:47.345Z,9.50
2019-03-09T17:21:49.660Z,9.50
2019-03-09T17:24:52.260Z,9.50
2019-03-09T17:33:13.155Z,9.50
2019-03-09T17:36:15.465Z,9.60
2019-03-09T17:39:17.768Z,9.60
2019-03-09T17:42:21.068Z,9.60
2019-03-09T17:45:23.407Z,9.60
2019-03-09T17:48:25.759Z,9.60
2019-03-09T17:51:28.050Z,9.60
2019-03-09T17:54:30.326Z,9.60
2019-03-09T17:57:32.632Z,9.60
2019-03-09T18:00:42.524Z,9.50
2019-03-09T18:03:38.515Z,9.50
2019-03-09T18:06:40.849Z,9.50
2019-03-09T18:09:43.191Z,9.60
2019-03-09T18:12:45.478Z,9.60
2019-03-09T18:15:47.783Z,9.60
2019-03-09T18:18:50.065Z,9.60
2019-03-09T18:21:52.373Z,9.60
2019-03-09T18:24:54.678Z,9.60
2019-03-09T18:27:56.928Z,9.60
2019-03-09T18:30:59.258Z,9.50
2019-03-09T18:34:01.553Z,9.60
2019-03-09T18:37:03.842Z,9.60
2019-03-09T18:40:06.369Z,9.60
2019-03-09T18:43:08.656Z,9.60
2019-03-09T18:46:10.907Z,9.50
2019-03-09T18:49:13.199Z,9.50
2019-03-09T18:52:15.472Z,9.50
2019-03-09T18:55:17.747Z,9.50
2019-03-09T18:58:20.087Z,9.50
2019-03-09T19:01:22.299Z,9.50
2019-03-09T19:04:24.635Z,9.50
2019-03-09T19:07:26.831Z,9.40
2019-03-09T19:10:29.139Z,9.40
2019-03-09T19:13:31.392Z,9.40
2019-03-09T19:16:33.699Z,9.40
2019-03-09T19:19:36.084Z,9.40
2019-03-09T19:22:38.340Z,9.40
2019-03-09T19:25:40.615Z,9.40
2019-03-09T19:28:42.871Z,9.40
2019-03-09T19:31:45.136Z,9.40
2019-03-09T19:34:47.424Z,9.50
2019-03-09T19:37:50.787Z,9.50
2019-03-09T19:40:53.067Z,9.50
2019-03-09T19:43:55.499Z,9.50
2019-03-09T19:46:57.727Z,9.50
2019-03-09T19:49:59.993Z,9.50
2019-03-09T19:53:02.295Z,9.60
2019-03-09T19:56:05.239Z,9.60
2019-03-09T19:59:08.418Z,9.60
2019-03-09T20:02:10.715Z,9.60
2019-03-09T20:05:13.100Z,9.60
2019-03-09T20:08:15.432Z,9.60
2019-03-09T20:11:17.731Z,9.60
2019-03-09T20:14:20.036Z,9.60
2019-03-09T20:17:22.400Z,9.60
2019-03-09T20:20:24.729Z,9.60
2019-03-09T20:23:27.167Z,9.70
2019-03-09T20:26:29.475Z,9.80
2019-03-09T20:29:31.754Z,9.80
2019-03-09T20:32:34.048Z,9.80
2019-03-09T20:35:36.453Z,9.80
2019-03-09T20:38:38.723Z,9.80
2019-03-09T20:41:41.005Z,9.80
2019-03-09T20:44:43.267Z,9.80
2019-03-09T20:47:45.590Z,9.80
2019-03-09T20:50:47.883Z,9.80
2019-03-09T20:53:50.192Z,9.80
2019-03-09T20:56:52.436Z,9.80
2019-03-09T20:59:54.791Z,9.90
2019-03-09T21:02:57.134Z,9.90
2019-03-09T21:05:59.442Z,10.00
2019-03-09T21:09:01.770Z,10.00
2019-03-09T21:12:04.043Z,10.00
2019-03-09T21:15:06.302Z,10.10
2019-03-09T21:18:08.693Z,10.10
2019-03-09T21:21:11.012Z,10.10
2019-03-09T21:24:13.216Z,10.10
2019-03-09T21:27:15.472Z,10.10
2019-03-09T21:30:17.789Z,10.10
2019-03-09T21:33:20.040Z,10.10
2019-03-09T21:36:22.272Z,10.20
2019-03-09T21:39:25.987Z,10.20
2019-03-09T21:42:28.244Z,10.20
2019-03-09T21:45:30.497Z,10.20
2019-03-09T21:48:32.739Z,10.20
2019-03-09T21:51:34.980Z,10.20
2019-03-09T21:54:37.234Z,10.20
2019-03-09T21:57:39.592Z,10.30
2019-03-09T22:00:41.903Z,10.30
2019-03-09T22:03:44.247Z,10.20
2019-03-09T22:06:46.491Z,10.20
2019-03-09T22:09:48.777Z,10.20
2019-03-09T22:12:51.198Z,10.20
2019-03-09T22:15:53.451Z,10.20
2019-03-09T22:18:56.843Z,10.20
2019-03-09T22:21:59.078Z,10.20
2019-03-09T22:25:01.351Z,10.20
2019-03-09T22:28:03.644Z,10.20
2019-03-09T22:31:05.919Z,10.20
2019-03-09T22:34:08.879Z,10.30
2019-03-09T22:37:11.181Z,10.20
2019-03-09T22:40:13.500Z,10.30
2019-03-09T22:43:15.786Z,10.30
2019-03-09T22:46:18.087Z,10.30
2019-03-09T22:49:20.388Z,10.40
2019-03-09T22:52:22.639Z,10.30
2019-03-09T22:55:24.899Z,10.30
2019-03-09T22:58:27.141Z,10.30
2019-03-09T23:01:29.488Z,10.30
2019-03-09T23:04:31.763Z,10.30
2019-03-09T23:07:33.995Z,10.30
2019-03-09T23:10:36.259Z,10.30
2019-03-09T23:13:38.539Z,10.30
2019-03-09T23:16:40.787Z,10.30
2019-03-09T23:19:43.081Z,10.30
2019-03-09T23:22:45.376Z,10.30
2019-03-09T23:25:47.615Z,10.30
2019-03-09T23:28:49.864Z,10.30
2019-03-09T23:31:52.427Z,10.30
2019-03-09T23:34:54.670Z,10.30
2019-03-09T23:37:57.038Z,10.30
2019-03-09T23:40:59.347Z,10.30
2019-03-09T23:44:01.618Z,10.20
2019-03-09T23:47:05.160Z,10.30
2019-03-09T23:50:09.128Z,10.20
2019-03-09T23:53:11.482Z,10.20
2019-03-09T23:57:16.761Z,10.30
